createdAt,value
2022-11-05T00:00:51.319Z,67.67
2022-11-05T00:01:51.301Z,67.57
2022-11-05T00:02:51.292Z,67.47
2022-11-05T00:03:51.281Z,67.27
2022-11-05T00:04:51.270Z,66.96
2022-11-05T00:05:51.308Z,67.06
2022-11-05T00:06:51.247Z,67.1
2022-11-05T00:07:51.240Z,67.5
2022-11-05T00:08:51.226Z,67.71
2022-11-05T00:09:51.236Z,67.77
2022-11-05T00:10:51.206Z,67.77
2022-11-05T00:11:51.194Z,67.57
2022-11-05T00:12:51.186Z,67.47
2022-11-05T00:13:51.174Z,67.27
2022-11-05T00:14:51.162Z,66.9
2022-11-05T00:15:51.152Z,65.95
2022-11-05T00:16:51.143Z,65.34
2022-11-05T00:17:51.135Z,65.88
2022-11-05T00:18:51.118Z,66.42
2022-11-05T00:19:51.110Z,67.06
2022-11-05T00:20:51.102Z,67.27
2022-11-05T00:21:51.093Z,66.86
2022-11-05T00:22:51.089Z,66.46
2022-11-05T00:23:51.072Z,66.83
2022-11-05T00:24:51.065Z,66.32
2022-11-05T00:25:51.043Z,66.12
2022-11-05T00:26:51.036Z,66.02
2022-11-05T00:27:51.034Z,65.81
2022-11-05T00:28:51.018Z,65.81
2022-11-05T00:29:51.006Z,65.81
2022-11-05T00:30:50.994Z,65.71
2022-11-05T00:31:50.981Z,65.84
2022-11-05T00:32:50.976Z,66.15
2022-11-05T00:33:50.966Z,66.02
2022-11-05T00:34:50.950Z,65.51
2022-11-05T00:35:50.947Z,65.51
2022-11-05T00:36:50.942Z,65.41
2022-11-05T00:37:50.927Z,65.54
2022-11-05T00:38:50.916Z,66.05
2022-11-05T00:39:50.908Z,65.94
2022-11-05T00:40:50.906Z,65.84
2022-11-05T00:41:50.881Z,65.94
2022-11-05T00:42:50.874Z,66.28
2022-11-05T00:43:50.859Z,66.49
2022-11-05T00:44:50.847Z,67.02
2022-11-05T00:45:50.833Z,67.02
2022-11-05T00:46:50.830Z,66.92
2022-11-05T00:47:50.814Z,66.92
2022-11-05T00:48:50.803Z,66.79
2022-11-05T00:49:50.793Z,66.49
2022-11-05T00:50:50.781Z,66.18
2022-11-05T00:51:50.771Z,65.94
2022-11-05T00:52:50.760Z,65.33
2022-11-05T00:53:50.755Z,65.33
2022-11-05T00:54:50.739Z,65.44
2022-11-05T00:55:50.732Z,65.33
2022-11-05T00:56:50.721Z,65.2
2022-11-05T00:57:50.714Z,65.1
2022-11-05T00:58:50.706Z,65
2022-11-05T00:59:50.691Z,65.1
2022-11-05T01:00:50.675Z,65.47
2022-11-05T01:01:50.665Z,66.44
2022-11-05T01:02:50.661Z,67.6
2022-11-05T01:03:50.648Z,67.69
2022-11-05T01:04:50.637Z,68.13
2022-11-05T01:05:50.620Z,68.34
2022-11-05T01:06:50.616Z,68.44
2022-11-05T01:07:50.611Z,68.54
2022-11-05T01:08:50.604Z,68.44
2022-11-05T01:09:50.583Z,69.19
2022-11-05T01:10:50.572Z,69.59
2022-11-05T01:11:50.564Z,69.46
2022-11-05T01:12:50.553Z,69.15
2022-11-05T01:13:50.544Z,68.71
2022-11-05T01:14:50.539Z,67.87
2022-11-05T01:15:50.556Z,67.33
2022-11-05T01:16:50.509Z,66.92
2022-11-05T01:17:50.503Z,66.61
2022-11-05T01:18:50.488Z,66.61
2022-11-05T01:19:50.478Z,66.82
2022-11-05T01:20:50.468Z,66.75
2022-11-05T01:21:50.456Z,66.52
2022-11-05T01:22:50.444Z,65.13
2022-11-05T01:23:50.436Z,64.15
2022-11-05T01:24:50.429Z,63.24
2022-11-05T01:25:50.414Z,62.71
2022-11-05T01:26:50.406Z,62.53
2022-11-05T01:27:50.394Z,62.51
2022-11-05T01:28:50.385Z,62.51
2022-11-05T01:29:50.373Z,62.2
2022-11-05T01:30:50.360Z,61.99
2022-11-05T01:31:50.348Z,62.6
2022-11-05T01:32:50.335Z,62.4
2022-11-05T01:33:50.324Z,62.1
2022-11-05T01:34:50.316Z,61.59
2022-11-05T01:35:50.308Z,61.9
2022-11-05T01:36:50.291Z,61.69
2022-11-05T01:37:50.291Z,61.79
2022-11-05T01:38:50.272Z,61.9
2022-11-05T01:39:50.262Z,61.99
2022-11-05T01:40:50.248Z,61.69
2022-11-05T01:41:50.251Z,61.69
2022-11-05T01:42:50.236Z,61.79
2022-11-05T01:43:50.219Z,61.99
2022-11-05T01:44:50.208Z,62.1
2022-11-05T01:45:50.196Z,62.13
2022-11-05T01:46:50.185Z,61.93
2022-11-05T01:47:50.179Z,62.13
2022-11-05T01:48:50.167Z,62.05
2022-11-05T01:49:50.151Z,62.56
2022-11-05T01:50:50.140Z,62.36
2022-11-05T01:51:50.131Z,62.16
2022-11-05T01:52:50.122Z,62.49
2022-11-05T01:53:50.114Z,62.59
2022-11-05T01:54:50.099Z,63.02
2022-11-05T01:55:50.086Z,63.43
2022-11-05T01:56:50.078Z,63.1
2022-11-05T01:57:50.068Z,62.79
2022-11-05T01:58:50.059Z,62.79
2022-11-05T01:59:50.047Z,62.93
2022-11-05T02:00:50.050Z,62.93
2022-11-05T02:01:50.023Z,63.23
2022-11-05T02:02:50.012Z,63.23
2022-11-05T02:03:50.004Z,63.13
2022-11-05T02:04:49.994Z,63.23
2022-11-05T02:05:49.984Z,63.46
2022-11-05T02:06:49.970Z,64.51
2022-11-05T02:07:49.959Z,64.61
2022-11-05T02:08:49.951Z,65.16
2022-11-05T02:09:49.943Z,65.05
2022-11-05T02:10:49.926Z,64.72
2022-11-05T02:11:49.920Z,64.41
2022-11-05T02:12:49.916Z,64.18
2022-11-05T02:13:49.897Z,63.87
2022-11-05T02:14:49.890Z,63.57
2022-11-05T02:15:49.878Z,63.57
2022-11-05T02:16:49.865Z,63.9
2022-11-05T02:17:49.859Z,64.11
2022-11-05T02:18:49.848Z,64.31
2022-11-05T02:19:49.834Z,64.34
2022-11-05T02:20:49.818Z,64.26
2022-11-05T02:21:49.809Z,65.11
2022-11-05T02:22:49.806Z,65.62
2022-11-05T02:23:49.796Z,65.58
2022-11-05T02:24:49.780Z,66.94
2022-11-05T02:25:49.767Z,68.33
2022-11-05T02:26:49.757Z,69.42
2022-11-05T02:27:49.750Z,70.88
2022-11-05T02:28:49.735Z,71.94
2022-11-05T02:29:49.746Z,72.78
2022-11-05T02:30:49.739Z,73.61
2022-11-05T02:31:49.703Z,73.3
2022-11-05T02:32:49.693Z,73.36
2022-11-05T02:33:49.684Z,72.99
2022-11-05T02:34:49.681Z,72.04
2022-11-05T02:35:49.659Z,71.33
2022-11-05T02:36:49.650Z,71.19
2022-11-05T02:37:49.642Z,70.57
2022-11-05T02:38:49.626Z,70.14
2022-11-05T02:39:49.618Z,69.52
2022-11-05T02:40:49.614Z,69.11
2022-11-05T02:41:49.596Z,68.6
2022-11-05T02:42:49.585Z,69.01
2022-11-05T02:43:49.578Z,69.45
2022-11-05T02:44:49.607Z,69.56
2022-11-05T02:45:49.553Z,70.3
2022-11-05T02:46:49.542Z,69.86
2022-11-05T02:47:49.532Z,69.56
2022-11-05T02:48:49.519Z,69.96
2022-11-05T02:49:49.510Z,69.45
2022-11-05T02:50:49.498Z,69.11
2022-11-05T02:51:49.489Z,68.77
2022-11-05T02:52:49.483Z,68.13
2022-11-05T02:53:49.466Z,67.41
2022-11-05T02:54:49.456Z,66.97
2022-11-05T02:55:49.450Z,66.77
2022-11-05T02:56:49.435Z,66.23
2022-11-05T02:57:49.424Z,66.23
2022-11-05T02:58:49.423Z,65.92
2022-11-05T02:59:49.401Z,65.49
2022-11-05T03:00:49.395Z,65.39
2022-11-05T03:01:49.383Z,64.87
2022-11-05T03:02:49.371Z,64.87
2022-11-05T03:03:49.358Z,65.55
2022-11-05T03:04:49.355Z,66.36
2022-11-05T03:05:49.342Z,66.39
2022-11-05T03:06:49.327Z,66.47
2022-11-05T03:07:49.318Z,66.57
2022-11-05T03:08:49.308Z,66.88
2022-11-05T03:09:49.309Z,66.77
2022-11-05T03:10:49.284Z,66.6
2022-11-05T03:11:49.274Z,66.8
2022-11-05T03:12:49.268Z,66.27
2022-11-05T03:13:49.250Z,67.45
2022-11-05T03:14:49.250Z,67.52
2022-11-05T03:15:49.237Z,67.11
2022-11-05T03:16:49.220Z,66.97
2022-11-05T03:17:49.209Z,66.36
2022-11-05T03:18:49.202Z,66.54
2022-11-05T03:19:49.188Z,66.1
2022-11-05T03:20:49.184Z,65.8
2022-11-05T03:21:49.165Z,65.39
2022-11-05T03:22:49.154Z,65.08
2022-11-05T03:23:49.146Z,65.08
2022-11-05T03:24:49.136Z,65.52
2022-11-05T03:25:49.124Z,65.72
2022-11-05T03:26:49.119Z,66.13
2022-11-05T03:27:49.105Z,66.03
2022-11-05T03:28:49.094Z,66.13
2022-11-05T03:29:49.083Z,66.23
2022-11-05T03:30:49.069Z,66.27
2022-11-05T03:31:49.061Z,66.36
2022-11-05T03:32:49.067Z,66.47
2022-11-05T03:33:49.049Z,66.27
2022-11-05T03:34:49.026Z,66.57
2022-11-05T03:35:49.022Z,66.47
2022-11-05T03:36:49.006Z,66.3
2022-11-05T03:37:48.994Z,66.7
2022-11-05T03:38:48.989Z,66.8
2022-11-05T03:39:48.976Z,66.7
2022-11-05T03:40:48.964Z,67.14
2022-11-05T03:41:48.956Z,68.4
2022-11-05T03:42:48.948Z,69.24
2022-11-05T03:43:48.932Z,68.6
2022-11-05T03:44:48.935Z,68.74
2022-11-05T03:45:48.911Z,70.03
2022-11-05T03:46:48.899Z,70.78
2022-11-05T03:47:48.887Z,71.39
2022-11-05T03:48:48.877Z,71.62
2022-11-05T03:49:48.883Z,72.14
2022-11-05T03:50:48.864Z,71.97
2022-11-05T03:51:48.849Z,72.58
2022-11-05T03:52:48.836Z,72.48
2022-11-05T03:53:48.825Z,72.82
2022-11-05T03:54:48.812Z,73.33
2022-11-05T03:55:48.807Z,73.78
2022-11-05T03:56:48.793Z,73.85
2022-11-05T03:57:48.779Z,73.54
2022-11-05T03:58:48.780Z,73.2
2022-11-05T03:59:48.760Z,72.65
2022-11-05T04:00:48.753Z,71.9
2022-11-05T04:01:48.743Z,71.15
2022-11-05T04:02:48.733Z,70.54
2022-11-05T04:03:48.726Z,70.67
2022-11-05T04:04:48.707Z,70.98
2022-11-05T04:05:48.702Z,70.84
2022-11-05T04:06:48.728Z,70.54
2022-11-05T04:07:48.723Z,70.34
2022-11-05T04:08:48.665Z,70.37
2022-11-05T04:09:48.679Z,71.42
2022-11-05T04:10:48.643Z,71.83
2022-11-05T04:11:48.631Z,72.04
2022-11-05T04:12:48.631Z,72
2022-11-05T04:13:48.615Z,71.8
2022-11-05T04:14:48.600Z,71.29
2022-11-05T04:15:48.593Z,71.53
2022-11-05T04:16:48.587Z,72.14
2022-11-05T04:17:48.570Z,72.34
2022-11-05T04:18:48.558Z,72.45
2022-11-05T04:19:48.549Z,72.45
2022-11-05T04:20:48.539Z,72.14
2022-11-05T04:21:48.528Z,72.55
2022-11-05T04:22:48.523Z,72.96
2022-11-05T04:23:48.506Z,72.21
2022-11-05T04:24:48.496Z,71.9
2022-11-05T04:25:48.486Z,71.59
2022-11-05T04:26:48.475Z,71.32
2022-11-05T04:27:48.464Z,72.28
2022-11-05T04:28:48.456Z,73.23
2022-11-05T04:29:48.441Z,74.05
2022-11-05T04:30:48.428Z,74.15
2022-11-05T04:31:48.459Z,74.05
2022-11-05T04:32:48.408Z,74.05
2022-11-05T04:33:48.398Z,74.15
2022-11-05T04:34:48.388Z,74.22
2022-11-05T04:35:48.376Z,73.47
2022-11-05T04:36:48.372Z,73.47
2022-11-05T04:37:48.353Z,73.13
2022-11-05T04:38:48.352Z,72.62
2022-11-05T04:39:48.350Z,72.38
2022-11-05T04:40:48.322Z,72.17
2022-11-05T04:41:48.311Z,71.83
2022-11-05T04:42:48.299Z,71.53
2022-11-05T04:43:48.288Z,70.84
2022-11-05T04:44:48.282Z,71.25
2022-11-05T04:45:48.270Z,71.22
2022-11-05T04:46:48.260Z,70.81
2022-11-05T04:47:48.247Z,71.36
2022-11-05T04:48:48.235Z,71.46
2022-11-05T04:49:48.226Z,71.56
2022-11-05T04:50:48.242Z,71.56
2022-11-05T04:51:48.203Z,71.73
2022-11-05T04:52:48.197Z,71.29
2022-11-05T04:53:48.182Z,71.09
2022-11-05T04:54:48.173Z,70.88
2022-11-05T04:55:48.163Z,70.78
2022-11-05T04:56:48.152Z,70.44
2022-11-05T04:57:48.136Z,70.34
2022-11-05T04:58:48.128Z,70
2022-11-05T04:59:48.120Z,69.73
2022-11-05T05:00:48.107Z,70
2022-11-05T05:01:48.099Z,69.59
2022-11-05T05:02:48.088Z,69.38
2022-11-05T05:03:48.075Z,69.29
2022-11-05T05:04:48.065Z,69.11
2022-11-05T05:05:48.054Z,69.86
2022-11-05T05:06:48.040Z,70.37
2022-11-05T05:07:48.032Z,70.71
2022-11-05T05:08:48.028Z,71.36
2022-11-05T05:09:48.010Z,71.77
2022-11-05T05:10:48.001Z,72.31
2022-11-05T05:11:47.991Z,72.52
2022-11-05T05:12:47.978Z,73.33
2022-11-05T05:13:47.968Z,72.82
2022-11-05T05:14:47.957Z,72.69
2022-11-05T05:15:47.948Z,72.28
2022-11-05T05:16:47.936Z,72.72
2022-11-05T05:17:47.940Z,72.92
2022-11-05T05:18:47.915Z,73.68
2022-11-05T05:19:47.907Z,74.11
2022-11-05T05:20:47.907Z,74.87
2022-11-05T05:21:47.879Z,75.28
2022-11-05T05:22:47.873Z,75.38
2022-11-05T05:23:47.870Z,75.76
2022-11-05T05:24:47.850Z,75.1
2022-11-05T05:25:47.844Z,74.29
2022-11-05T05:26:47.828Z,74.6
2022-11-05T05:27:47.816Z,74.39
2022-11-05T05:28:47.807Z,74.63
2022-11-05T05:29:47.796Z,74.97
2022-11-05T05:30:47.781Z,75.48
2022-11-05T05:31:47.775Z,74.73
2022-11-05T05:32:47.762Z,74.9
2022-11-05T05:33:47.752Z,74.26
2022-11-05T05:34:47.766Z,73.91
2022-11-05T05:35:47.733Z,72.89
2022-11-05T05:36:47.725Z,73.54
2022-11-05T05:37:47.723Z,73.33
2022-11-05T05:38:47.699Z,73.33
2022-11-05T05:39:47.687Z,73.2
2022-11-05T05:40:47.680Z,72.55
2022-11-05T05:41:47.665Z,71.59
2022-11-05T05:42:47.657Z,71.53
2022-11-05T05:43:47.643Z,71.91
2022-11-05T05:44:47.637Z,71.59
2022-11-05T05:45:47.627Z,71.39
2022-11-05T05:46:47.627Z,71.8
2022-11-05T05:47:47.620Z,71.59
2022-11-05T05:48:47.602Z,71.91
2022-11-05T05:49:47.591Z,71.91
2022-11-05T05:50:47.585Z,71.97
2022-11-05T05:51:47.573Z,71.67
2022-11-05T05:52:47.548Z,71.53
2022-11-05T05:53:47.534Z,71.22
2022-11-05T05:54:47.530Z,71.02
2022-11-05T05:55:47.519Z,71.02
2022-11-05T05:56:47.504Z,70.81
2022-11-05T05:57:47.513Z,70.61
2022-11-05T05:58:47.484Z,70.14
2022-11-05T05:59:47.474Z,69.19
2022-11-05T06:00:47.464Z,68.34
2022-11-05T06:01:47.471Z,67.8
2022-11-05T06:02:47.458Z,67.16
2022-11-05T06:03:47.427Z,66.75
2022-11-05T06:04:47.464Z,66.35
2022-11-05T06:05:47.412Z,66.21
2022-11-05T06:06:47.395Z,66.21
2022-11-05T06:07:47.390Z,66.11
2022-11-05T06:08:47.376Z,66.11
2022-11-05T06:09:47.375Z,66
2022-11-05T06:10:47.356Z,66.41
2022-11-05T06:11:47.363Z,66.28
2022-11-05T06:12:47.332Z,65.88
2022-11-05T06:13:47.322Z,65.57
2022-11-05T06:14:47.320Z,65.77
2022-11-05T06:15:47.303Z,65.03
2022-11-05T06:16:47.291Z,65.3
2022-11-05T06:17:47.283Z,66.58
2022-11-05T06:18:47.267Z,67.69
2022-11-05T06:19:47.266Z,67.49
2022-11-05T06:20:47.253Z,67.6
2022-11-05T06:21:47.236Z,67.69
2022-11-05T06:22:47.224Z,68.71
2022-11-05T06:23:47.219Z,70.48
2022-11-05T06:24:47.203Z,70.24
2022-11-05T06:25:47.193Z,70.04
2022-11-05T06:26:47.183Z,69.63
2022-11-05T06:27:47.179Z,69.93
2022-11-05T06:28:47.175Z,70.04
2022-11-05T06:29:47.157Z,69.59
2022-11-05T06:30:47.146Z,69.26
2022-11-05T06:31:47.195Z,68.85
2022-11-05T06:32:47.129Z,68.44
2022-11-05T06:33:47.105Z,68.44
2022-11-05T06:34:47.094Z,68.95
2022-11-05T06:35:47.084Z,68.65
2022-11-05T06:36:47.076Z,68.75
2022-11-05T06:37:47.068Z,68.71
2022-11-05T06:38:47.051Z,68.54
2022-11-05T06:39:47.041Z,69.09
2022-11-05T06:40:47.032Z,70.65
2022-11-05T06:41:47.019Z,70.21
2022-11-05T06:42:47.023Z,70.37
2022-11-05T06:43:47.031Z,70.85
2022-11-05T06:44:47.023Z,70.41
2022-11-05T06:45:46.985Z,69.76
2022-11-05T06:46:46.969Z,69.53
2022-11-05T06:47:46.961Z,68.71
2022-11-05T06:48:46.949Z,68.58
2022-11-05T06:49:46.941Z,68.1
2022-11-05T06:50:46.927Z,68.71
2022-11-05T06:51:46.912Z,68.95
2022-11-05T06:52:46.902Z,68.95
2022-11-05T06:53:46.892Z,69.12
2022-11-05T06:54:46.891Z,69.32
2022-11-05T06:55:46.884Z,68.68
2022-11-05T06:56:46.862Z,68.48
2022-11-05T06:57:46.857Z,68.04
2022-11-05T06:58:46.837Z,67.83
2022-11-05T06:59:46.833Z,67.94
2022-11-05T07:00:46.818Z,67.63
2022-11-05T07:01:46.806Z,67.83
2022-11-05T07:02:46.799Z,67.83
2022-11-05T07:03:46.788Z,67.71
2022-11-05T07:04:46.777Z,67.6
2022-11-05T07:05:46.761Z,67.6
2022-11-05T07:06:46.759Z,67.5
2022-11-05T07:07:46.748Z,67.8
2022-11-05T07:08:46.728Z,67.6
2022-11-05T07:09:46.729Z,67.5
2022-11-05T07:10:46.714Z,67.6
2022-11-05T07:11:46.697Z,67.71
2022-11-05T07:12:46.693Z,67.8
2022-11-05T07:13:46.679Z,67.6
2022-11-05T07:14:46.669Z,67.71
2022-11-05T07:15:46.674Z,67.67
2022-11-05T07:16:46.645Z,67.36
2022-11-05T07:17:46.668Z,67.27
2022-11-05T07:18:46.639Z,66.93
2022-11-05T07:19:46.616Z,66.63
2022-11-05T07:20:46.597Z,66.32
2022-11-05T07:21:46.591Z,66.66
2022-11-05T07:22:46.583Z,66.72
2022-11-05T07:23:46.585Z,66.6
2022-11-05T07:24:46.580Z,66.19
2022-11-05T07:25:46.554Z,65.95
2022-11-05T07:26:46.544Z,65.65
2022-11-05T07:27:46.531Z,65.24
2022-11-05T07:28:46.524Z,65.48
2022-11-05T07:29:46.514Z,65.78
2022-11-05T07:30:46.505Z,66.52
2022-11-05T07:31:46.480Z,67.03
2022-11-05T07:32:46.476Z,68.11
2022-11-05T07:33:46.460Z,68.92
2022-11-05T07:34:46.486Z,69.43
2022-11-05T07:35:46.439Z,69.57
2022-11-05T07:36:46.451Z,70.07
2022-11-05T07:37:46.419Z,70.07
2022-11-05T07:38:46.423Z,70.48
2022-11-05T07:39:46.398Z,70.79
2022-11-05T07:40:46.387Z,71.33
2022-11-05T07:41:46.387Z,71.97
2022-11-05T07:42:46.381Z,72.82
2022-11-05T07:43:46.354Z,73.33
2022-11-05T07:44:46.360Z,73.64
2022-11-05T07:45:46.337Z,74.15
2022-11-05T07:46:46.327Z,74.15
2022-11-05T07:47:46.320Z,74.04
2022-11-05T07:48:46.302Z,73.84
2022-11-05T07:49:46.292Z,73.94
2022-11-05T07:50:46.278Z,74.49
2022-11-05T07:51:46.274Z,74.79
2022-11-05T07:52:46.262Z,74.9
2022-11-05T07:53:46.263Z,74.99
2022-11-05T07:54:46.243Z,75.1
2022-11-05T07:55:46.226Z,75.2
2022-11-05T07:56:46.215Z,75.3
2022-11-05T07:57:46.208Z,75.4
2022-11-05T07:58:46.200Z,75.34
2022-11-05T07:59:46.192Z,76.19
2022-11-05T08:00:46.175Z,76.25
2022-11-05T08:01:46.176Z,76.01
2022-11-05T08:02:46.159Z,75.71
2022-11-05T08:03:46.147Z,75.23
2022-11-05T08:04:46.141Z,74.08
2022-11-05T08:05:46.119Z,73.23
2022-11-05T08:06:46.115Z,72.52
2022-11-05T08:07:46.125Z,72.08
2022-11-05T08:08:46.091Z,72.11
2022-11-05T08:09:46.078Z,71.97
2022-11-05T08:10:46.068Z,72.11
2022-11-05T08:11:46.053Z,72.75
2022-11-05T08:12:46.048Z,73.16
2022-11-05T08:13:46.035Z,73.71
2022-11-05T08:14:46.022Z,74.15
2022-11-05T08:15:46.016Z,74.35
2022-11-05T08:16:46.004Z,74.45
2022-11-05T08:17:45.993Z,74.76
2022-11-05T08:18:45.983Z,74.76
2022-11-05T08:19:45.968Z,74.76
2022-11-05T08:20:45.957Z,74.9
2022-11-05T08:21:45.950Z,75.4
2022-11-05T08:22:45.942Z,75.74
2022-11-05T08:23:45.926Z,75.95
2022-11-05T08:24:45.917Z,76.15
2022-11-05T08:25:45.907Z,75.81
2022-11-05T08:26:45.893Z,75.4
2022-11-05T08:27:45.892Z,75.51
2022-11-05T08:28:45.877Z,75.06
2022-11-05T08:29:45.867Z,74.62
2022-11-05T08:30:45.863Z,73.77
2022-11-05T08:31:45.852Z,73.13
2022-11-05T08:32:45.845Z,72.62
2022-11-05T08:33:45.830Z,72.01
2022-11-05T08:34:45.807Z,72.31
2022-11-05T08:35:45.857Z,72.17
2022-11-05T08:36:45.795Z,71.36
2022-11-05T08:37:45.774Z,71.64
2022-11-05T08:38:45.765Z,72.96
2022-11-05T08:39:45.759Z,72.41
2022-11-05T08:40:45.757Z,71.23
2022-11-05T08:41:45.733Z,71.91
2022-11-05T08:42:45.723Z,72.82
2022-11-05T08:43:45.734Z,73.33
2022-11-05T08:44:45.710Z,72.69
2022-11-05T08:45:45.704Z,72.04
2022-11-05T08:46:45.684Z,71.7
2022-11-05T08:47:45.675Z,71.19
2022-11-05T08:48:45.657Z,71.19
2022-11-05T08:49:45.645Z,71.19
2022-11-05T08:50:45.642Z,70.75
2022-11-05T08:51:45.649Z,70.14
2022-11-05T08:52:45.617Z,70.99
2022-11-05T08:53:45.609Z,70.99
2022-11-05T08:54:45.603Z,71.5
2022-11-05T08:55:45.584Z,71.57
2022-11-05T08:56:45.579Z,71.57
2022-11-05T08:57:45.561Z,70.65
2022-11-05T08:58:45.555Z,70.42
2022-11-05T08:59:45.543Z,70.01
2022-11-05T09:00:45.536Z,70.21
2022-11-05T09:01:45.528Z,69.7
2022-11-05T09:02:45.520Z,69.81
2022-11-05T09:03:45.520Z,69.5
2022-11-05T09:04:45.491Z,69.4
2022-11-05T09:05:45.485Z,69.6
2022-11-05T09:06:45.468Z,68.93
2022-11-05T09:07:45.455Z,68.08
2022-11-05T09:08:45.475Z,67.03
2022-11-05T09:09:45.461Z,66.57
2022-11-05T09:10:45.426Z,65.93
2022-11-05T09:11:45.421Z,65.32
2022-11-05T09:12:45.415Z,64.92
2022-11-05T09:13:45.394Z,65.02
2022-11-05T09:14:45.395Z,65.15
2022-11-05T09:15:45.375Z,65.99
2022-11-05T09:16:45.372Z,66.4
2022-11-05T09:17:45.357Z,66.02
2022-11-05T09:18:45.349Z,67.14
2022-11-05T09:19:45.336Z,66.5
2022-11-05T09:20:45.329Z,66.13
2022-11-05T09:21:45.315Z,66.63
2022-11-05T09:22:45.301Z,66.77
2022-11-05T09:23:45.428Z,67.65
2022-11-05T09:24:45.276Z,66.16
2022-11-05T09:25:45.267Z,65.45
2022-11-05T09:26:45.255Z,65.22
2022-11-05T09:27:45.251Z,65.02
2022-11-05T09:28:45.237Z,65.05
2022-11-05T09:29:45.226Z,65.79
2022-11-05T09:30:45.224Z,66.57
2022-11-05T09:31:45.214Z,65.32
2022-11-05T09:32:45.192Z,65.22
2022-11-05T09:33:45.184Z,64.72
2022-11-05T09:34:45.197Z,64.51
2022-11-05T09:35:45.164Z,64.54
2022-11-05T09:36:45.155Z,65.72
2022-11-05T09:37:45.164Z,65.92
2022-11-05T09:38:45.139Z,66.77
2022-11-05T09:39:45.139Z,67.07
2022-11-05T09:40:45.129Z,67.17
2022-11-05T09:41:45.128Z,68.15
2022-11-05T09:42:45.085Z,69.06
2022-11-05T09:43:45.072Z,68.42
2022-11-05T09:44:45.088Z,67.94
2022-11-05T09:45:45.061Z,68.32
2022-11-05T09:46:45.040Z,68.01
2022-11-05T09:47:45.044Z,67.88
2022-11-05T09:48:45.025Z,67.34
2022-11-05T09:49:45.028Z,67.24
2022-11-05T09:50:45.080Z,66.63
2022-11-05T09:51:45.011Z,66.53
2022-11-05T09:52:44.979Z,65.79
2022-11-05T09:53:44.996Z,66.83
2022-11-05T09:54:44.955Z,65.99
2022-11-05T09:55:44.959Z,65.56
2022-11-05T09:56:45.476Z,65.36
2022-11-05T09:57:44.976Z,65.05
2022-11-05T09:58:44.910Z,64.95
2022-11-05T09:59:44.903Z,65.36
2022-11-05T10:00:44.892Z,65.36
2022-11-05T10:01:44.886Z,64.89
2022-11-05T10:02:44.869Z,63.95
2022-11-05T10:03:44.869Z,63.44
2022-11-05T10:04:44.847Z,63.9
2022-11-05T10:05:44.835Z,66.02
2022-11-05T10:06:45.039Z,66.97
2022-11-05T10:07:44.819Z,66.63
2022-11-05T10:08:44.799Z,66.57
2022-11-05T10:09:44.787Z,65.89
2022-11-05T10:10:44.786Z,65.12
2022-11-05T10:11:44.775Z,64.48
2022-11-05T10:12:44.762Z,63.78
2022-11-05T10:13:44.744Z,63.78
2022-11-05T10:14:44.736Z,63.75
2022-11-05T10:15:44.725Z,63.37
2022-11-05T10:16:44.729Z,64.88
2022-11-05T10:17:44.736Z,65.82
2022-11-05T10:18:44.707Z,65.69
2022-11-05T10:19:44.679Z,65.12
2022-11-05T10:20:44.729Z,63.67
2022-11-05T10:21:44.675Z,63.34
2022-11-05T10:22:44.686Z,62.5
2022-11-05T10:23:44.638Z,62.19
2022-11-05T10:24:44.627Z,62.07
2022-11-05T10:25:44.615Z,61.66
2022-11-05T10:26:44.621Z,61.66
2022-11-05T10:27:44.607Z,61.87
2022-11-05T10:28:44.637Z,61.96
2022-11-05T10:29:44.588Z,61.63
2022-11-05T10:30:44.589Z,61.73
2022-11-05T10:31:44.650Z,61.33
2022-11-05T10:32:44.541Z,61.05
2022-11-05T10:33:44.531Z,62.23
2022-11-05T10:34:44.530Z,63.04
2022-11-05T10:35:44.507Z,62.7
2022-11-05T10:36:44.499Z,62.87
2022-11-05T10:37:44.595Z,62.14
2022-11-05T10:38:44.476Z,61.56
2022-11-05T10:39:44.465Z,62.33
2022-11-05T10:40:44.460Z,63.98
2022-11-05T10:41:44.447Z,63.75
2022-11-05T10:42:44.439Z,63.31
2022-11-05T10:43:44.423Z,62.67
2022-11-05T10:44:44.426Z,62.37
2022-11-05T10:45:44.454Z,62.16
2022-11-05T10:46:44.433Z,62.77
2022-11-05T10:47:44.399Z,62.07
2022-11-05T10:48:44.409Z,61.87
2022-11-05T10:49:44.366Z,62.16
2022-11-05T10:50:44.350Z,61.96
2022-11-05T10:51:44.342Z,61.73
2022-11-05T10:52:44.396Z,61.53
2022-11-05T10:53:44.362Z,61.43
2022-11-05T10:54:44.323Z,61.13
2022-11-05T10:55:44.298Z,61.03
2022-11-05T10:56:44.284Z,61.13
2022-11-05T10:57:44.277Z,61.63
2022-11-05T10:58:44.286Z,61.43
2022-11-05T10:59:44.273Z,61.13
2022-11-05T11:00:44.244Z,61.2
2022-11-05T11:01:44.237Z,61.03
2022-11-05T11:02:44.238Z,61.43
2022-11-05T11:03:44.213Z,61.23
2022-11-05T11:04:44.257Z,61.87
2022-11-05T11:05:44.189Z,62.53
2022-11-05T11:06:44.181Z,62.3
2022-11-05T11:07:44.164Z,61.36
2022-11-05T11:08:44.192Z,60.75
2022-11-05T11:09:44.146Z,61.36
2022-11-05T11:10:44.153Z,60.85
2022-11-05T11:11:44.128Z,61.29
2022-11-05T11:12:44.120Z,60.85
2022-11-05T11:13:44.121Z,60.02
2022-11-05T11:14:44.147Z,60.45
2022-11-05T11:15:44.103Z,60.45
2022-11-05T11:16:44.069Z,60.19
2022-11-05T11:17:44.063Z,59.33
2022-11-05T11:18:44.046Z,58.62
2022-11-05T11:19:44.033Z,59.12
2022-11-05T11:20:44.028Z,59.2
2022-11-05T11:21:44.025Z,58.19
2022-11-05T11:22:44.010Z,59.38
2022-11-05T11:23:43.998Z,59.76
2022-11-05T11:24:43.979Z,59.35
2022-11-05T11:25:43.971Z,59.28
2022-11-05T11:26:44.499Z,59.45
2022-11-05T11:27:43.955Z,58.26
2022-11-05T11:28:43.939Z,57.23
2022-11-05T11:29:43.935Z,58.75
2022-11-05T11:30:43.919Z,59.53
2022-11-05T11:31:43.909Z,56.34
2022-11-05T11:32:43.897Z,54.13
2022-11-05T11:33:43.963Z,51.84
2022-11-05T11:34:43.879Z,52.72
2022-11-05T11:35:43.860Z,53.02
2022-11-05T11:36:43.857Z,51.32
2022-11-05T11:37:43.859Z,48.72
2022-11-05T11:38:43.832Z,45.5
2022-11-05T11:39:45.188Z,44.31
2022-11-05T11:40:43.808Z,44.9
2022-11-05T11:41:43.813Z,44.74
2022-11-05T11:42:43.785Z,44.4
2022-11-05T11:43:43.783Z,43.66
2022-11-05T11:44:43.764Z,43.38
2022-11-05T11:45:43.760Z,44.45
2022-11-05T11:46:43.748Z,46.99
2022-11-05T11:47:43.787Z,46.33
2022-11-05T11:48:43.721Z,46.65
2022-11-05T11:49:43.749Z,45.89
2022-11-05T11:50:43.704Z,44.65
2022-11-05T11:51:43.696Z,43.15
2022-11-05T11:52:43.685Z,41.83
2022-11-05T11:53:43.677Z,41.2
2022-11-05T11:54:43.662Z,41.53
2022-11-05T11:55:43.658Z,41.74
2022-11-05T11:56:43.702Z,41.08
2022-11-05T11:57:44.470Z,39.75
2022-11-05T11:58:43.622Z,40.48
2022-11-05T11:59:43.611Z,40.7
2022-11-05T12:00:43.604Z,41.83
2022-11-05T12:01:43.598Z,41.69
2022-11-05T12:02:43.602Z,41.55
2022-11-05T12:03:43.569Z,44.59
2022-11-05T12:04:43.561Z,44.59
2022-11-05T12:05:43.554Z,45.09
2022-11-05T12:06:43.544Z,43.63
2022-11-05T12:07:43.535Z,43.11
2022-11-05T12:08:43.524Z,43.85
2022-11-05T12:09:43.506Z,44.46
2022-11-05T12:10:43.499Z,43.25
2022-11-05T12:11:43.486Z,45.94
2022-11-05T12:12:43.473Z,48.53
2022-11-05T12:13:43.465Z,49.56
2022-11-05T12:14:43.454Z,49.66
2022-11-05T12:15:43.439Z,0
2022-11-05T12:16:43.464Z,45.47
2022-11-05T12:17:43.429Z,46.45
2022-11-05T12:18:43.408Z,0
2022-11-05T12:19:43.401Z,43.23
2022-11-05T12:20:43.387Z,44.07
2022-11-05T12:21:43.375Z,42.91
2022-11-05T12:22:43.368Z,41.87
2022-11-05T12:23:43.364Z,44.01
2022-11-05T12:24:43.351Z,45.59
2022-11-05T12:25:43.339Z,48.73
2022-11-05T12:26:43.329Z,49.88
2022-11-05T12:27:43.314Z,52.01
2022-11-05T12:28:43.307Z,53.65
2022-11-05T12:29:43.298Z,52.72
2022-11-05T12:30:43.299Z,52.09
2022-11-05T12:31:43.282Z,52.09
2022-11-05T12:32:43.267Z,52.19
2022-11-05T12:33:43.251Z,53.05
2022-11-05T12:34:43.288Z,53.9
2022-11-05T12:35:43.244Z,53.8
2022-11-05T12:36:43.231Z,54
2022-11-05T12:37:43.218Z,54.3
2022-11-05T12:38:43.199Z,54.83
2022-11-05T12:39:43.229Z,54.1
2022-11-05T12:40:43.211Z,53.92
2022-11-05T12:41:43.170Z,54.23
2022-11-05T12:42:43.170Z,54.13
2022-11-05T12:43:43.146Z,53.92
2022-11-05T12:44:43.135Z,53.7
2022-11-05T12:45:43.129Z,53.4
2022-11-05T12:46:43.114Z,53.6
2022-11-05T12:47:43.100Z,53.8
2022-11-05T12:48:43.096Z,53.63
2022-11-05T12:49:43.084Z,53.92
2022-11-05T12:50:43.068Z,54.23
2022-11-05T12:51:43.060Z,54.33
2022-11-05T12:52:43.056Z,54.68
2022-11-05T12:53:43.060Z,56.68
2022-11-05T12:54:43.028Z,58.05
2022-11-05T12:55:43.036Z,57.85
2022-11-05T12:56:43.032Z,58.31